• Join FlightAware (Why Join?)
  • Login
  • US Flag 
04:11PM EDT


 

Airport Tracker/Info


-or-


 

Live Flight TrackerFlight Track Log ✈ LYM752 ✈ 04-Oct-2013 ✈ KGJT - KDEN

Flight Track Log - Related Links

Times and Time Zones

All times are in EDT time to prevent confusion due to time zone crossing. See the LYM752 flight status page for this flight to view local times or setup timezone preferences in your user account.

Time Position Orientation Groundspeed Altitude Reporting Facility
EDT Latitude Longitude Course Direction KTS MPH feet Rate Location/Type
10:18AM 39.1000 -108.5167 159° South 116 133 6,100  Level Denver TRACON
10:19AM 39.0667 -108.5000 159° South 120 138 7,100 1,020 Climbing Denver TRACON
10:20AM 39.0500 -108.5000 180° South 128 147 8,200 960 Climbing Denver TRACON
10:22AM 39.0717 -108.5106 339° North 110 127 9,400 1,020 Climbing Denver Center
10:23AM 39.0994 -108.4861 34° Northeast 113 130 10,600 1,020 Climbing Denver Center
10:24AM 39.1242 -108.4622 37° Northeast 112 129 11,500 840 Climbing Denver Center
10:25AM 39.1519 -108.4383 34° Northeast 121 139 12,400 960 Climbing Denver Center
10:26AM 39.1808 -108.4136 34° Northeast 124 143 13,500 960 Climbing Denver Center
10:27AM 39.2089 -108.3886 35° Northeast 120 138 14,400 840 Climbing Denver Center
10:28AM 39.2381 -108.3658 31° Northeast 122 140 15,300 780 Climbing Denver Center
10:29AM 39.2647 -108.3364 41° Northeast 127 146 16,100 720 Climbing Denver Center
10:30AM 39.2836 -108.2906 62° Northeast 139 160 16,800 420 Climbing Denver Center
10:31AM 39.3044 -108.2375 63° Northeast 157 181 17,000 60 Climbing Denver Center
10:32AM 39.3275 -108.1817 62° Northeast 174 200 17,000  Level Denver Center
10:33AM 39.3542 -108.1228 60° Northeast 189 217 17,100  Climbing Denver Center
10:34AM 39.3858 -108.0581 58° Northeast 199 229 17,100  Level Denver Center
10:35AM 39.4114 -108.0003 60° Northeast 198 228 17,100  Level Denver Center
10:36AM 39.4411 -107.9264 62° Northeast 207 238 17,100  Level Denver Center
10:37AM 39.4681 -107.8639 61° Northeast 209 241 17,100  Level Denver Center
10:38AM 39.4942 -107.8008 62° Northeast 210 242 17,100  Level Denver Center
10:39AM 39.5222 -107.7264 64° Northeast 207 238 17,100  Level Denver Center
10:40AM 39.5481 -107.6619 63° Northeast 209 241 17,100  Level Denver Center
10:41AM 39.5783 -107.5889 62° Northeast 207 238 17,100  Level Denver Center
10:42AM 39.6044 -107.5247 62° Northeast 210 242 17,100  Level Denver Center
10:43AM 39.6336 -107.4506 63° Northeast 210 242 17,100  Level Denver Center
10:44AM 39.6592 -107.3858 63° Northeast 210 242 17,100  Level Denver Center
10:45AM 39.6836 -107.3217 64° Northeast 209 241 17,100  Level Denver Center
10:46AM 39.7139 -107.2472 62° Northeast 208 239 17,100  Level Denver Center
10:47AM 39.7369 -107.1850 64° Northeast 214 246 17,100  Level Denver Center
10:48AM 39.7664 -107.1017 65° Northeast 214 246 17,200  Climbing Denver Center
10:49AM 39.7911 -107.0300 66° East 213 245 17,100 -60 Descending Denver Center
10:50AM 39.8167 -106.9594 65° Northeast 214 246 17,100  Level Denver Center
10:51AM 39.8417 -106.8894 65° Northeast 212 244 17,100 -60 Level Denver Center
10:52AM 39.8683 -106.8200 63° Northeast 213 245 17,000 -60 Descending Denver Center
10:53AM 39.8950 -106.7508 63° Northeast 213 245 17,000  Level Denver Center
10:54AM 39.9217 -106.6819 63° Northeast 212 244 17,000  Level Denver Center
10:55AM 39.9489 -106.6131 63° Northeast 213 245 17,100  Climbing Denver Center
10:57AM 39.9739 -106.5436 65° Northeast 212 244 17,000 -60 Descending Denver Center
10:58AM 39.9978 -106.4742 66° East 210 242 17,000  Level Denver Center
10:59AM 40.0456 -106.4083 47° Northeast 212 244 17,000  Level Denver Center
11:00AM 40.0911 -106.3639 37° Northeast 208 239 17,100  Climbing Denver Center
11:01AM 40.1269 -106.3069 51° Northeast 212 244 17,000 -60 Descending Denver Center
11:02AM 40.1400 -106.2289 78° East 219 252 17,000  Level Denver Center
11:03AM 40.1628 -106.1486 70° East 213 245 17,000  Level Denver Center
11:04AM 40.1844 -106.0797 68° East 208 239 17,100  Climbing Denver Center
11:05AM 40.2075 -106.0081 67° East 210 242 17,000 -60 Descending Denver Center
11:06AM 40.2281 -105.9369 69° East 210 242 17,000  Level Denver Center
11:07AM 40.2447 -105.8625 74° East 212 244 17,100  Climbing Denver Center
11:08AM 40.2642 -105.7861 72° East 218 251 17,000 -60 Descending Denver Center
11:09AM 40.2875 -105.6958 71° East 219 252 17,000  Level Denver Center
11:10AM 40.3050 -105.6219 73° East 214 246 17,100  Climbing Denver Center
11:11AM 40.3261 -105.5489 69° East 215 247 17,000 -60 Descending Denver Center
11:12AM 40.3475 -105.4761 69° East 213 245 17,000 -360 Level Denver Center
11:13AM 40.3456 -105.3956 92° East 233 268 16,300 -720 Descending Denver Center
11:14AM 40.2903 -105.3414 143° Southeast 233 268 15,600 -780 Descending Denver Center
11:15AM 40.2472 -105.2742 130° Southeast 244 281 14,800 -780 Descending Denver Center
11:16AM 40.2094 -105.1933 121° Southeast 242 278 14,100 -420 Descending Denver Center
11:17AM 40.1733 -105.1275 126° Southeast 225 259 14,000  Descending Denver Center
11:18AM 40.1372 -105.0642 127° Southeast 218 251 14,100  Climbing Denver Center
11:19AM 40.0989 -104.9969 127° Southeast 216 249 14,000 -60 Descending Denver Center
11:20AM 40.0636 -104.9331 126° Southeast 216 249 14,000  Level Denver Center
11:21AM 40.0272 -104.8642 125° Southeast 215 247 14,000 -360 Level Denver Center
11:22AM 39.9922 -104.7969 124° Southeast 221 254 13,300 -780 Descending Denver Center
11:23AM 39.9533 -104.7233 125° Southeast 242 278 12,400 -960 Descending Denver Center
11:24AM 39.9128 -104.6450 124° Southeast 241 277 11,400 -900 Descending Denver Center
11:25AM 39.9000 -104.6000 110° East 233 268 11,000 -240 Descending Denver TRACON
11:26AM 39.8667 -104.5500 131° Southeast 211 243 11,100 -120 Climbing Denver TRACON
11:26AM 39.8414 -104.5125 131° Southeast 209 241 10,900 -120 Descending Denver Center
11:28AM 39.7892 -104.5014 171° South 189 217 11,000 -180 Climbing Denver Center
11:29AM 39.7364 -104.4919 172° South 191 220 10,600 -660 Descending Denver Center
11:30AM 39.6747 -104.4878 177° South 203 234 9,700 -780 Descending Denver Center
11:31AM 39.6175 -104.4981 188° South 207 238 9,000 -360 Descending Denver Center
11:32AM 39.5583 -104.5075 187° South 199 229 9,000 -60 Level Denver Center
11:33AM 39.5178 -104.5431 214° Southwest 180 207 8,900 -480 Descending Denver Center
11:34AM 39.5069 -104.6053 257° West 181 208 8,100 -480 Descending Denver Center
11:35AM 39.5397 -104.6406 320° Northwest 146 168 8,000 -60 Descending Denver Center
11:36AM 39.5781 -104.6450 355° North 139 160 8,000  Level Denver Center
11:37AM 39.6175 -104.6453 360° North 133 153 8,000  Level Denver Center
11:38AM 39.6542 -104.6433 North 131 151 8,100  Climbing Denver Center
11:39AM 39.6906 -104.6436 360° North 132 152 8,100 -300 Level Denver Center
11:40AM 39.7303 -104.6428 North 133 153 7,600 -660 Descending Denver Center
11:41AM 39.7619 -104.6439 358° North 117 135 6,800 -660 Descending Denver Center
11:42AM 39.7933 -104.6411 North 108 124 6,300 -480 Descending Denver Center
11:43AM 39.8233 -104.6417 359° North 109 125 5,800 -480 Descending Denver Center
11:44AM 39.8522 -104.6417 360° North 110 127 5,400 -420 Descending Denver Center